sensor_id;sensor_type;location;lat;lon;timestamp;P1;durP1;ratioP1;P2;durP2;ratioP2
20283;SDS011;10301;50.832;4.080;2022-12-11T00:00:44;29.60;;;14.60;;
20283;SDS011;10301;50.832;4.080;2022-12-11T00:03:10;30.97;;;15.40;;
20283;SDS011;10301;50.832;4.080;2022-12-11T00:05:38;29.13;;;13.43;;
20283;SDS011;10301;50.832;4.080;2022-12-11T00:08:04;31.83;;;14.83;;
20283;SDS011;10301;50.832;4.080;2022-12-11T00:10:30;31.43;;;15.80;;
20283;SDS011;10301;50.832;4.080;2022-12-11T00:12:55;30.70;;;14.27;;
20283;SDS011;10301;50.832;4.080;2022-12-11T00:15:21;30.73;;;13.97;;
20283;SDS011;10301;50.832;4.080;2022-12-11T00:17:47;32.23;;;14.73;;
20283;SDS011;10301;50.832;4.080;2022-12-11T00:20:12;31.87;;;14.60;;
20283;SDS011;10301;50.832;4.080;2022-12-11T00:22:38;32.83;;;14.60;;
20283;SDS011;10301;50.832;4.080;2022-12-11T00:25:04;30.20;;;13.60;;
20283;SDS011;10301;50.832;4.080;2022-12-11T00:27:30;35.23;;;13.77;;
20283;SDS011;10301;50.832;4.080;2022-12-11T00:29:55;30.80;;;14.23;;
20283;SDS011;10301;50.832;4.080;2022-12-11T00:32:21;31.40;;;13.93;;
20283;SDS011;10301;50.832;4.080;2022-12-11T00:34:47;30.27;;;16.40;;
20283;SDS011;10301;50.832;4.080;2022-12-11T00:37:12;31.23;;;13.50;;
20283;SDS011;10301;50.832;4.080;2022-12-11T00:39:38;30.60;;;14.20;;
20283;SDS011;10301;50.832;4.080;2022-12-11T00:42:04;27.63;;;13.37;;
20283;SDS011;10301;50.832;4.080;2022-12-11T00:44:31;29.67;;;13.27;;
20283;SDS011;10301;50.832;4.080;2022-12-11T00:46:57;26.83;;;11.93;;
20283;SDS011;10301;50.832;4.080;2022-12-11T00:49:23;29.80;;;14.33;;
20283;SDS011;10301;50.832;4.080;2022-12-11T00:51:48;25.53;;;13.03;;
20283;SDS011;10301;50.832;4.080;2022-12-11T00:54:14;28.70;;;13.83;;
20283;SDS011;10301;50.832;4.080;2022-12-11T00:56:40;29.43;;;13.10;;
20283;SDS011;10301;50.832;4.080;2022-12-11T00:59:06;27.47;;;12.87;;
20283;SDS011;10301;50.832;4.080;2022-12-11T01:01:32;31.77;;;13.40;;
20283;SDS011;10301;50.832;4.080;2022-12-11T01:03:57;26.47;;;13.03;;
20283;SDS011;10301;50.832;4.080;2022-12-11T01:06:24;28.17;;;12.93;;
20283;SDS011;10301;50.832;4.080;2022-12-11T01:08:50;28.20;;;12.80;;
20283;SDS011;10301;50.832;4.080;2022-12-11T01:11:35;31.53;;;12.80;;
20283;SDS011;10301;50.832;4.080;2022-12-11T01:14:01;27.63;;;12.80;;
20283;SDS011;10301;50.832;4.080;2022-12-11T01:16:27;29.40;;;13.10;;
20283;SDS011;10301;50.832;4.080;2022-12-11T01:18:53;25.80;;;11.97;;
20283;SDS011;10301;50.832;4.080;2022-12-11T01:21:18;28.87;;;13.33;;
20283;SDS011;10301;50.832;4.080;2022-12-11T01:23:44;27.90;;;12.10;;
20283;SDS011;10301;50.832;4.080;2022-12-11T01:26:11;26.97;;;12.80;;
20283;SDS011;10301;50.832;4.080;2022-12-11T01:28:39;29.53;;;13.57;;
20283;SDS011;10301;50.832;4.080;2022-12-11T01:31:09;28.40;;;12.27;;
20283;SDS011;10301;50.832;4.080;2022-12-11T01:33:38;30.67;;;14.00;;
20283;SDS011;10301;50.832;4.080;2022-12-11T01:36:14;32.43;;;13.87;;
20283;SDS011;10301;50.832;4.080;2022-12-11T01:38:42;26.43;;;12.83;;
20283;SDS011;10301;50.832;4.080;2022-12-11T01:41:09;28.17;;;12.90;;
20283;SDS011;10301;50.832;4.080;2022-12-11T01:43:54;28.00;;;13.57;;
20283;SDS011;10301;50.832;4.080;2022-12-11T01:46:23;29.07;;;13.33;;
20283;SDS011;10301;50.832;4.080;2022-12-11T01:48:49;33.93;;;15.33;;
20283;SDS011;10301;50.832;4.080;2022-12-11T01:51:15;32.87;;;14.07;;
20283;SDS011;10301;50.832;4.080;2022-12-11T01:53:42;28.93;;;14.30;;
20283;SDS011;10301;50.832;4.080;2022-12-11T01:56:12;30.20;;;14.93;;
20283;SDS011;10301;50.832;4.080;2022-12-11T01:58:40;33.67;;;15.50;;
20283;SDS011;10301;50.832;4.080;2022-12-11T02:01:11;29.63;;;13.97;;
20283;SDS011;10301;50.832;4.080;2022-12-11T02:03:44;27.80;;;13.70;;
20283;SDS011;10301;50.832;4.080;2022-12-11T02:08:56;35.80;;;15.43;;
20283;SDS011;10301;50.832;4.080;2022-12-11T02:11:23;31.90;;;14.97;;
20283;SDS011;10301;50.832;4.080;2022-12-11T02:17:15;36.20;;;15.77;;
20283;SDS011;10301;50.832;4.080;2022-12-11T02:25:04;38.50;;;16.57;;
20283;SDS011;10301;50.832;4.080;2022-12-11T02:27:41;33.93;;;15.80;;
20283;SDS011;10301;50.832;4.080;2022-12-11T02:30:20;35.33;;;15.63;;
20283;SDS011;10301;50.832;4.080;2022-12-11T02:32:47;34.73;;;16.13;;
20283;SDS011;10301;50.832;4.080;2022-12-11T02:37:43;35.30;;;17.33;;
20283;SDS011;10301;50.832;4.080;2022-12-11T02:40:11;36.03;;;17.47;;
20283;SDS011;10301;50.832;4.080;2022-12-11T02:42:39;37.23;;;17.33;;
20283;SDS011;10301;50.832;4.080;2022-12-11T02:45:07;37.63;;;17.47;;
20283;SDS011;10301;50.832;4.080;2022-12-11T02:47:34;39.57;;;18.27;;
20283;SDS011;10301;50.832;4.080;2022-12-11T02:50:02;37.67;;;18.00;;
20283;SDS011;10301;50.832;4.080;2022-12-11T02:52:33;37.27;;;18.47;;
20283;SDS011;10301;50.832;4.080;2022-12-11T02:55:01;43.47;;;17.97;;
20283;SDS011;10301;50.832;4.080;2022-12-11T02:57:36;40.97;;;18.10;;
20283;SDS011;10301;50.832;4.080;2022-12-11T03:00:04;41.33;;;18.23;;
20283;SDS011;10301;50.832;4.080;2022-12-11T03:02:32;44.10;;;18.80;;
20283;SDS011;10301;50.832;4.080;2022-12-11T03:04:58;38.63;;;18.47;;
20283;SDS011;10301;50.832;4.080;2022-12-11T03:07:25;38.60;;;17.80;;
20283;SDS011;10301;50.832;4.080;2022-12-11T03:09:52;36.87;;;17.33;;
20283;SDS011;10301;50.832;4.080;2022-12-11T03:12:31;38.37;;;17.20;;
20283;SDS011;10301;50.832;4.080;2022-12-11T03:15:00;37.93;;;17.50;;
20283;SDS011;10301;50.832;4.080;2022-12-11T03:18:16;37.03;;;16.87;;
20283;SDS011;10301;50.832;4.080;2022-12-11T03:23:11;37.67;;;16.27;;
20283;SDS011;10301;50.832;4.080;2022-12-11T03:25:45;39.00;;;17.80;;
20283;SDS011;10301;50.832;4.080;2022-12-11T03:28:26;39.40;;;17.47;;
20283;SDS011;10301;50.832;4.080;2022-12-11T03:31:04;34.67;;;16.30;;
20283;SDS011;10301;50.832;4.080;2022-12-11T03:33:35;40.10;;;17.57;;
20283;SDS011;10301;50.832;4.080;2022-12-11T03:36:05;41.47;;;17.10;;
20283;SDS011;10301;50.832;4.080;2022-12-11T03:38:38;36.70;;;16.57;;
20283;SDS011;10301;50.832;4.080;2022-12-11T03:41:15;32.20;;;15.87;;
20283;SDS011;10301;50.832;4.080;2022-12-11T03:43:43;35.70;;;16.93;;
20283;SDS011;10301;50.832;4.080;2022-12-11T03:46:09;40.23;;;17.10;;
20283;SDS011;10301;50.832;4.080;2022-12-11T03:48:38;37.93;;;17.33;;
20283;SDS011;10301;50.832;4.080;2022-12-11T03:51:06;37.07;;;17.93;;
20283;SDS011;10301;50.832;4.080;2022-12-11T03:53:33;38.50;;;18.67;;
20283;SDS011;10301;50.832;4.080;2022-12-11T03:56:00;40.27;;;16.60;;
20283;SDS011;10301;50.832;4.080;2022-12-11T03:58:28;39.30;;;17.87;;
20283;SDS011;10301;50.832;4.080;2022-12-11T04:00:54;39.20;;;17.33;;
20283;SDS011;10301;50.832;4.080;2022-12-11T04:03:20;38.07;;;17.20;;
20283;SDS011;10301;50.832;4.080;2022-12-11T04:05:47;38.33;;;18.43;;
20283;SDS011;10301;50.832;4.080;2022-12-11T04:08:14;38.43;;;17.60;;
20283;SDS011;10301;50.832;4.080;2022-12-11T04:10:42;34.53;;;17.07;;
20283;SDS011;10301;50.832;4.080;2022-12-11T04:13:08;41.37;;;19.00;;
20283;SDS011;10301;50.832;4.080;2022-12-11T04:15:34;39.30;;;18.50;;
20283;SDS011;10301;50.832;4.080;2022-12-11T04:18:01;41.40;;;19.70;;
20283;SDS011;10301;50.832;4.080;2022-12-11T04:20:46;41.83;;;19.17;;
20283;SDS011;10301;50.832;4.080;2022-12-11T04:23:30;38.93;;;18.30;;
20283;SDS011;10301;50.832;4.080;2022-12-11T04:26:15;42.00;;;19.57;;
20283;SDS011;10301;50.832;4.080;2022-12-11T04:28:43;41.93;;;19.57;;
20283;SDS011;10301;50.832;4.080;2022-12-11T04:31:13;45.10;;;18.83;;
20283;SDS011;10301;50.832;4.080;2022-12-11T04:33:40;44.87;;;18.80;;
20283;SDS011;10301;50.832;4.080;2022-12-11T04:36:06;48.03;;;19.40;;
20283;SDS011;10301;50.832;4.080;2022-12-11T04:38:33;49.53;;;21.07;;
20283;SDS011;10301;50.832;4.080;2022-12-11T04:40:59;49.30;;;20.10;;
20283;SDS011;10301;50.832;4.080;2022-12-11T04:43:26;50.57;;;21.07;;
20283;SDS011;10301;50.832;4.080;2022-12-11T04:46:11;45.53;;;20.13;;
20283;SDS011;10301;50.832;4.080;2022-12-11T04:48:39;48.63;;;20.97;;
20283;SDS011;10301;50.832;4.080;2022-12-11T04:51:05;47.40;;;20.43;;
20283;SDS011;10301;50.832;4.080;2022-12-11T04:53:31;50.77;;;21.43;;
20283;SDS011;10301;50.832;4.080;2022-12-11T04:55:57;44.57;;;19.83;;
20283;SDS011;10301;50.832;4.080;2022-12-11T04:58:23;52.30;;;20.30;;
20283;SDS011;10301;50.832;4.080;2022-12-11T05:00:49;50.10;;;21.70;;
20283;SDS011;10301;50.832;4.080;2022-12-11T05:03:16;46.23;;;20.10;;
20283;SDS011;10301;50.832;4.080;2022-12-11T05:05:51;49.23;;;20.97;;
20283;SDS011;10301;50.832;4.080;2022-12-11T05:08:18;49.97;;;21.73;;
20283;SDS011;10301;50.832;4.080;2022-12-11T05:10:44;46.87;;;20.77;;
20283;SDS011;10301;50.832;4.080;2022-12-11T05:13:23;50.40;;;19.90;;
20283;SDS011;10301;50.832;4.080;2022-12-11T05:15:48;45.00;;;19.57;;
20283;SDS011;10301;50.832;4.080;2022-12-11T05:18:14;48.17;;;19.53;;
20283;SDS011;10301;50.832;4.080;2022-12-11T05:20:40;49.00;;;20.40;;
20283;SDS011;10301;50.832;4.080;2022-12-11T05:23:05;45.17;;;20.27;;
20283;SDS011;10301;50.832;4.080;2022-12-11T05:25:31;52.03;;;21.07;;
20283;SDS011;10301;50.832;4.080;2022-12-11T05:27:57;50.53;;;21.73;;
20283;SDS011;10301;50.832;4.080;2022-12-11T05:30:22;49.37;;;21.33;;
20283;SDS011;10301;50.832;4.080;2022-12-11T05:32:48;51.87;;;20.93;;
20283;SDS011;10301;50.832;4.080;2022-12-11T05:35:13;46.13;;;21.30;;
20283;SDS011;10301;50.832;4.080;2022-12-11T05:37:39;47.77;;;20.97;;
20283;SDS011;10301;50.832;4.080;2022-12-11T05:40:05;45.87;;;21.40;;
20283;SDS011;10301;50.832;4.080;2022-12-11T05:42:31;51.93;;;22.20;;
20283;SDS011;10301;50.832;4.080;2022-12-11T05:44:57;48.83;;;20.60;;
20283;SDS011;10301;50.832;4.080;2022-12-11T05:47:23;48.97;;;19.93;;
20283;SDS011;10301;50.832;4.080;2022-12-11T05:49:49;46.50;;;21.30;;
20283;SDS011;10301;50.832;4.080;2022-12-11T05:52:15;46.57;;;21.27;;
20283;SDS011;10301;50.832;4.080;2022-12-11T05:54:41;51.50;;;21.80;;
20283;SDS011;10301;50.832;4.080;2022-12-11T05:57:07;45.07;;;20.77;;
20283;SDS011;10301;50.832;4.080;2022-12-11T05:59:32;49.20;;;21.63;;
20283;SDS011;10301;50.832;4.080;2022-12-11T06:01:58;50.27;;;22.00;;
20283;SDS011;10301;50.832;4.080;2022-12-11T06:04:23;55.10;;;23.03;;
20283;SDS011;10301;50.832;4.080;2022-12-11T06:06:49;47.47;;;21.10;;
20283;SDS011;10301;50.832;4.080;2022-12-11T06:09:18;54.90;;;22.73;;
20283;SDS011;10301;50.832;4.080;2022-12-11T06:11:44;51.33;;;22.60;;
20283;SDS011;10301;50.832;4.080;2022-12-11T06:14:10;50.30;;;20.37;;
20283;SDS011;10301;50.832;4.080;2022-12-11T06:16:36;50.60;;;21.80;;
20283;SDS011;10301;50.832;4.080;2022-12-11T06:19:02;54.10;;;22.40;;
20283;SDS011;10301;50.832;4.080;2022-12-11T06:21:28;49.30;;;21.50;;
20283;SDS011;10301;50.832;4.080;2022-12-11T06:23:57;56.83;;;21.73;;
20283;SDS011;10301;50.832;4.080;2022-12-11T06:26:26;49.53;;;21.83;;
20283;SDS011;10301;50.832;4.080;2022-12-11T06:28:52;52.47;;;21.17;;
20283;SDS011;10301;50.832;4.080;2022-12-11T06:31:18;55.17;;;21.80;;
20283;SDS011;10301;50.832;4.080;2022-12-11T06:33:44;51.20;;;21.00;;
20283;SDS011;10301;50.832;4.080;2022-12-11T06:36:15;51.50;;;20.27;;
20283;SDS011;10301;50.832;4.080;2022-12-11T06:38:42;52.03;;;21.50;;
20283;SDS011;10301;50.832;4.080;2022-12-11T06:41:09;51.50;;;20.53;;
20283;SDS011;10301;50.832;4.080;2022-12-11T06:43:35;48.33;;;20.30;;
20283;SDS011;10301;50.832;4.080;2022-12-11T06:46:03;53.00;;;20.73;;
20283;SDS011;10301;50.832;4.080;2022-12-11T06:48:29;52.53;;;21.90;;
20283;SDS011;10301;50.832;4.080;2022-12-11T06:50:55;51.87;;;19.40;;
20283;SDS011;10301;50.832;4.080;2022-12-11T06:53:21;49.87;;;20.70;;
20283;SDS011;10301;50.832;4.080;2022-12-11T06:55:47;48.73;;;21.43;;
20283;SDS011;10301;50.832;4.080;2022-12-11T06:58:13;51.00;;;21.10;;
20283;SDS011;10301;50.832;4.080;2022-12-11T07:00:38;50.33;;;21.23;;
20283;SDS011;10301;50.832;4.080;2022-12-11T07:03:04;44.77;;;20.23;;
20283;SDS011;10301;50.832;4.080;2022-12-11T07:05:30;45.53;;;19.73;;
20283;SDS011;10301;50.832;4.080;2022-12-11T07:07:57;47.30;;;18.83;;
20283;SDS011;10301;50.832;4.080;2022-12-11T07:10:23;44.90;;;19.43;;
20283;SDS011;10301;50.832;4.080;2022-12-11T07:12:48;42.73;;;19.13;;
20283;SDS011;10301;50.832;4.080;2022-12-11T07:15:16;44.70;;;18.50;;
20283;SDS011;10301;50.832;4.080;2022-12-11T07:17:42;43.77;;;19.10;;
20283;SDS011;10301;50.832;4.080;2022-12-11T07:20:08;50.87;;;21.77;;
20283;SDS011;10301;50.832;4.080;2022-12-11T07:22:34;50.53;;;21.43;;
20283;SDS011;10301;50.832;4.080;2022-12-11T07:24:59;51.03;;;21.83;;
20283;SDS011;10301;50.832;4.080;2022-12-11T07:27:25;45.87;;;19.03;;
20283;SDS011;10301;50.832;4.080;2022-12-11T07:29:51;43.60;;;19.07;;
20283;SDS011;10301;50.832;4.080;2022-12-11T07:32:16;46.73;;;19.97;;
20283;SDS011;10301;50.832;4.080;2022-12-11T07:34:42;46.33;;;19.13;;
20283;SDS011;10301;50.832;4.080;2022-12-11T07:37:08;45.17;;;19.37;;
20283;SDS011;10301;50.832;4.080;2022-12-11T07:39:33;47.87;;;19.70;;
20283;SDS011;10301;50.832;4.080;2022-12-11T07:41:59;43.07;;;19.20;;
20283;SDS011;10301;50.832;4.080;2022-12-11T07:44:24;46.33;;;20.03;;
20283;SDS011;10301;50.832;4.080;2022-12-11T07:46:50;45.13;;;18.23;;
20283;SDS011;10301;50.832;4.080;2022-12-11T07:49:16;46.27;;;19.33;;
20283;SDS011;10301;50.832;4.080;2022-12-11T07:51:42;46.40;;;18.57;;
20283;SDS011;10301;50.832;4.080;2022-12-11T07:54:09;44.87;;;19.83;;
20283;SDS011;10301;50.832;4.080;2022-12-11T07:56:40;43.67;;;17.70;;
20283;SDS011;10301;50.832;4.080;2022-12-11T07:59:10;42.33;;;18.57;;
20283;SDS011;10301;50.832;4.080;2022-12-11T08:01:36;43.77;;;19.13;;
20283;SDS011;10301;50.832;4.080;2022-12-11T08:04:04;44.73;;;18.73;;
20283;SDS011;10301;50.832;4.080;2022-12-11T08:06:32;49.87;;;19.00;;
20283;SDS011;10301;50.832;4.080;2022-12-11T08:09:00;54.17;;;23.67;;
20283;SDS011;10301;50.832;4.080;2022-12-11T08:11:27;46.13;;;19.20;;
20283;SDS011;10301;50.832;4.080;2022-12-11T08:13:53;44.50;;;19.87;;
20283;SDS011;10301;50.832;4.080;2022-12-11T08:16:19;44.33;;;19.57;;
20283;SDS011;10301;50.832;4.080;2022-12-11T08:18:46;53.37;;;23.07;;
20283;SDS011;10301;50.832;4.080;2022-12-11T08:21:22;49.33;;;21.13;;
20283;SDS011;10301;50.832;4.080;2022-12-11T08:23:50;48.30;;;20.97;;
20283;SDS011;10301;50.832;4.080;2022-12-11T08:26:18;40.33;;;18.80;;
20283;SDS011;10301;50.832;4.080;2022-12-11T08:28:48;40.27;;;19.03;;
20283;SDS011;10301;50.832;4.080;2022-12-11T08:31:15;43.20;;;19.50;;
20283;SDS011;10301;50.832;4.080;2022-12-11T08:33:41;48.13;;;19.67;;
20283;SDS011;10301;50.832;4.080;2022-12-11T08:36:09;41.50;;;18.23;;
20283;SDS011;10301;50.832;4.080;2022-12-11T08:38:36;44.77;;;18.87;;
20283;SDS011;10301;50.832;4.080;2022-12-11T08:41:09;47.60;;;19.43;;
20283;SDS011;10301;50.832;4.080;2022-12-11T08:43:39;50.77;;;20.70;;
20283;SDS011;10301;50.832;4.080;2022-12-11T08:46:05;56.37;;;19.93;;
20283;SDS011;10301;50.832;4.080;2022-12-11T08:48:35;46.17;;;19.43;;
20283;SDS011;10301;50.832;4.080;2022-12-11T08:51:02;46.37;;;18.73;;
20283;SDS011;10301;50.832;4.080;2022-12-11T08:53:30;47.83;;;18.70;;
20283;SDS011;10301;50.832;4.080;2022-12-11T08:56:00;42.00;;;19.57;;
20283;SDS011;10301;50.832;4.080;2022-12-11T08:58:45;49.13;;;19.40;;
20283;SDS011;10301;50.832;4.080;2022-12-11T09:03:38;46.30;;;19.10;;
20283;SDS011;10301;50.832;4.080;2022-12-11T09:06:06;44.87;;;18.90;;
20283;SDS011;10301;50.832;4.080;2022-12-11T09:08:37;50.13;;;18.57;;
20283;SDS011;10301;50.832;4.080;2022-12-11T09:11:04;51.87;;;19.43;;
20283;SDS011;10301;50.832;4.080;2022-12-11T09:13:31;43.27;;;17.37;;
20283;SDS011;10301;50.832;4.080;2022-12-11T09:15:57;46.43;;;18.43;;
20283;SDS011;10301;50.832;4.080;2022-12-11T09:18:23;45.80;;;19.63;;
20283;SDS011;10301;50.832;4.080;2022-12-11T09:20:56;47.07;;;19.67;;
20283;SDS011;10301;50.832;4.080;2022-12-11T09:23:26;45.37;;;17.93;;
20283;SDS011;10301;50.832;4.080;2022-12-11T09:25:52;45.07;;;18.57;;
20283;SDS011;10301;50.832;4.080;2022-12-11T09:28:17;49.50;;;19.37;;
20283;SDS011;10301;50.832;4.080;2022-12-11T09:30:43;44.43;;;17.20;;
20283;SDS011;10301;50.832;4.080;2022-12-11T09:33:09;44.73;;;16.93;;
20283;SDS011;10301;50.832;4.080;2022-12-11T09:35:35;44.00;;;17.60;;
20283;SDS011;10301;50.832;4.080;2022-12-11T09:38:01;48.23;;;18.50;;
20283;SDS011;10301;50.832;4.080;2022-12-11T09:40:27;43.57;;;16.70;;
20283;SDS011;10301;50.832;4.080;2022-12-11T09:42:53;42.53;;;17.53;;
20283;SDS011;10301;50.832;4.080;2022-12-11T09:45:30;45.47;;;17.13;;
20283;SDS011;10301;50.832;4.080;2022-12-11T09:47:57;40.37;;;16.13;;
20283;SDS011;10301;50.832;4.080;2022-12-11T09:50:27;38.60;;;16.80;;
20283;SDS011;10301;50.832;4.080;2022-12-11T09:53:11;43.67;;;18.43;;
20283;SDS011;10301;50.832;4.080;2022-12-11T10:01:31;40.40;;;17.07;;
20283;SDS011;10301;50.832;4.080;2022-12-11T10:04:27;37.03;;;14.87;;
20283;SDS011;10301;50.832;4.080;2022-12-11T10:07:01;41.13;;;15.87;;
20283;SDS011;10301;50.832;4.080;2022-12-11T10:15:23;38.57;;;15.93;;
20283;SDS011;10301;50.832;4.080;2022-12-11T10:18:11;41.53;;;15.97;;
20283;SDS011;10301;50.832;4.080;2022-12-11T10:20:42;37.97;;;15.30;;
20283;SDS011;10301;50.832;4.080;2022-12-11T10:23:14;39.27;;;16.87;;
20283;SDS011;10301;50.832;4.080;2022-12-11T10:25:44;40.67;;;15.43;;
20283;SDS011;10301;50.832;4.080;2022-12-11T10:28:16;39.37;;;16.50;;
20283;SDS011;10301;50.832;4.080;2022-12-11T10:30:54;39.37;;;16.53;;
20283;SDS011;10301;50.832;4.080;2022-12-11T10:33:28;35.43;;;14.73;;
20283;SDS011;10301;50.832;4.080;2022-12-11T10:36:18;38.03;;;16.53;;
20283;SDS011;10301;50.832;4.080;2022-12-11T10:38:49;41.13;;;16.37;;
20283;SDS011;10301;50.832;4.080;2022-12-11T10:41:21;36.80;;;15.93;;
20283;SDS011;10301;50.832;4.080;2022-12-11T10:43:52;34.57;;;14.97;;
20283;SDS011;10301;50.832;4.080;2022-12-11T10:48:48;34.27;;;14.40;;
20283;SDS011;10301;50.832;4.080;2022-12-11T10:51:17;40.53;;;15.97;;
20283;SDS011;10301;50.832;4.080;2022-12-11T10:53:54;37.23;;;15.07;;
20283;SDS011;10301;50.832;4.080;2022-12-11T10:56:26;35.07;;;14.67;;
20283;SDS011;10301;50.832;4.080;2022-12-11T10:58:52;34.67;;;14.70;;
20283;SDS011;10301;50.832;4.080;2022-12-11T11:01:21;38.07;;;15.70;;
20283;SDS011;10301;50.832;4.080;2022-12-11T11:03:53;36.63;;;15.13;;
20283;SDS011;10301;50.832;4.080;2022-12-11T11:06:22;38.00;;;14.73;;
20283;SDS011;10301;50.832;4.080;2022-12-11T11:08:53;35.10;;;14.83;;
20283;SDS011;10301;50.832;4.080;2022-12-11T11:11:34;35.07;;;13.43;;
20283;SDS011;10301;50.832;4.080;2022-12-11T11:16:52;32.90;;;13.20;;
20283;SDS011;10301;50.832;4.080;2022-12-11T11:21:57;28.57;;;11.97;;
20283;SDS011;10301;50.832;4.080;2022-12-11T11:24:32;26.77;;;10.27;;
20283;SDS011;10301;50.832;4.080;2022-12-11T11:27:11;21.93;;;9.67;;
20283;SDS011;10301;50.832;4.080;2022-12-11T11:29:56;25.97;;;10.97;;
20283;SDS011;10301;50.832;4.080;2022-12-11T11:32:37;24.47;;;10.70;;
20283;SDS011;10301;50.832;4.080;2022-12-11T11:35:04;27.53;;;11.70;;
20283;SDS011;10301;50.832;4.080;2022-12-11T11:37:40;24.73;;;10.63;;
20283;SDS011;10301;50.832;4.080;2022-12-11T11:40:15;28.90;;;10.70;;
20283;SDS011;10301;50.832;4.080;2022-12-11T11:42:48;27.43;;;12.10;;
20283;SDS011;10301;50.832;4.080;2022-12-11T11:45:30;30.27;;;12.27;;
20283;SDS011;10301;50.832;4.080;2022-12-11T11:48:11;30.97;;;13.00;;
20283;SDS011;10301;50.832;4.080;2022-12-11T11:50:38;32.90;;;12.67;;
20283;SDS011;10301;50.832;4.080;2022-12-11T11:53:11;40.10;;;14.00;;
20283;SDS011;10301;50.832;4.080;2022-12-11T11:58:26;36.27;;;15.47;;
20283;SDS011;10301;50.832;4.080;2022-12-11T12:01:02;34.97;;;14.40;;
20283;SDS011;10301;50.832;4.080;2022-12-11T12:03:29;33.47;;;14.30;;
20283;SDS011;10301;50.832;4.080;2022-12-11T12:14:14;36.97;;;14.80;;
20283;SDS011;10301;50.832;4.080;2022-12-11T12:19:47;37.07;;;14.37;;
20283;SDS011;10301;50.832;4.080;2022-12-11T12:25:24;33.67;;;14.83;;
20283;SDS011;10301;50.832;4.080;2022-12-11T12:27:57;37.50;;;15.17;;
20283;SDS011;10301;50.832;4.080;2022-12-11T12:30:50;39.80;;;16.17;;
20283;SDS011;10301;50.832;4.080;2022-12-11T12:44:14;43.57;;;17.57;;
20283;SDS011;10301;50.832;4.080;2022-12-11T12:46:56;47.73;;;19.40;;
20283;SDS011;10301;50.832;4.080;2022-12-11T12:52:22;44.27;;;17.27;;
20283;SDS011;10301;50.832;4.080;2022-12-11T12:54:55;44.10;;;18.07;;
20283;SDS011;10301;50.832;4.080;2022-12-11T12:57:41;40.73;;;17.20;;
20283;SDS011;10301;50.832;4.080;2022-12-11T13:00:09;40.57;;;16.40;;
20283;SDS011;10301;50.832;4.080;2022-12-11T13:02:57;37.03;;;16.00;;
20283;SDS011;10301;50.832;4.080;2022-12-11T13:05:27;44.57;;;16.87;;
20283;SDS011;10301;50.832;4.080;2022-12-11T13:07:56;43.33;;;17.07;;
20283;SDS011;10301;50.832;4.080;2022-12-11T13:10:29;42.70;;;18.27;;
20283;SDS011;10301;50.832;4.080;2022-12-11T13:12:57;42.50;;;18.00;;
20283;SDS011;10301;50.832;4.080;2022-12-11T13:15:40;43.97;;;18.77;;
20283;SDS011;10301;50.832;4.080;2022-12-11T13:20:57;47.83;;;18.87;;
20283;SDS011;10301;50.832;4.080;2022-12-11T13:23:30;47.50;;;18.70;;
20283;SDS011;10301;50.832;4.080;2022-12-11T13:25:58;45.20;;;17.77;;
20283;SDS011;10301;50.832;4.080;2022-12-11T13:33:40;49.40;;;20.17;;
20283;SDS011;10301;50.832;4.080;2022-12-11T13:38:54;58.50;;;24.80;;
20283;SDS011;10301;50.832;4.080;2022-12-11T13:41:25;48.50;;;20.40;;
20283;SDS011;10301;50.832;4.080;2022-12-11T13:43:52;49.60;;;20.43;;
20283;SDS011;10301;50.832;4.080;2022-12-11T13:46:19;43.53;;;18.37;;
20283;SDS011;10301;50.832;4.080;2022-12-11T13:48:53;49.07;;;19.70;;
20283;SDS011;10301;50.832;4.080;2022-12-11T13:51:25;40.43;;;18.53;;
20283;SDS011;10301;50.832;4.080;2022-12-11T13:57:03;44.23;;;19.80;;
20283;SDS011;10301;50.832;4.080;2022-12-11T14:01:58;49.33;;;20.33;;
20283;SDS011;10301;50.832;4.080;2022-12-11T14:04:28;47.00;;;19.37;;
20283;SDS011;10301;50.832;4.080;2022-12-11T14:06:55;41.77;;;18.30;;
20283;SDS011;10301;50.832;4.080;2022-12-11T14:09:23;44.97;;;19.27;;
20283;SDS011;10301;50.832;4.080;2022-12-11T14:11:51;37.87;;;16.77;;
20283;SDS011;10301;50.832;4.080;2022-12-11T14:14:21;39.87;;;18.43;;
20283;SDS011;10301;50.832;4.080;2022-12-11T14:16:54;38.73;;;17.23;;
20283;SDS011;10301;50.832;4.080;2022-12-11T14:19:20;35.57;;;16.43;;
20283;SDS011;10301;50.832;4.080;2022-12-11T14:21:57;37.03;;;17.93;;
20283;SDS011;10301;50.832;4.080;2022-12-11T14:24:25;40.60;;;18.33;;
20283;SDS011;10301;50.832;4.080;2022-12-11T14:26:51;36.20;;;17.50;;
20283;SDS011;10301;50.832;4.080;2022-12-11T14:31:49;37.70;;;18.93;;
20283;SDS011;10301;50.832;4.080;2022-12-11T14:34:26;37.80;;;16.83;;
20283;SDS011;10301;50.832;4.080;2022-12-11T14:36:57;37.40;;;17.97;;
20283;SDS011;10301;50.832;4.080;2022-12-11T14:39:27;35.37;;;17.47;;
20283;SDS011;10301;50.832;4.080;2022-12-11T14:42:26;48.90;;;20.90;;
20283;SDS011;10301;50.832;4.080;2022-12-11T14:45:21;38.80;;;18.20;;
20283;SDS011;10301;50.832;4.080;2022-12-11T14:47:45;37.07;;;18.07;;
20283;SDS011;10301;50.832;4.080;2022-12-11T14:50:21;32.77;;;16.60;;
20283;SDS011;10301;50.832;4.080;2022-12-11T14:53:03;32.30;;;16.17;;
20283;SDS011;10301;50.832;4.080;2022-12-11T14:55:36;36.27;;;17.33;;
20283;SDS011;10301;50.832;4.080;2022-12-11T14:58:25;31.77;;;15.50;;
20283;SDS011;10301;50.832;4.080;2022-12-11T15:03:33;32.93;;;16.57;;
20283;SDS011;10301;50.832;4.080;2022-12-11T15:06:22;34.10;;;16.63;;
20283;SDS011;10301;50.832;4.080;2022-12-11T15:08:50;34.27;;;16.37;;
20283;SDS011;10301;50.832;4.080;2022-12-11T15:11:16;39.27;;;18.87;;
20283;SDS011;10301;50.832;4.080;2022-12-11T15:13:59;33.90;;;16.97;;
20283;SDS011;10301;50.832;4.080;2022-12-11T15:16:28;36.63;;;17.10;;
20283;SDS011;10301;50.832;4.080;2022-12-11T15:18:57;27.43;;;15.33;;
20283;SDS011;10301;50.832;4.080;2022-12-11T15:21:31;30.40;;;16.80;;
20283;SDS011;10301;50.832;4.080;2022-12-11T15:23:59;35.43;;;16.87;;
20283;SDS011;10301;50.832;4.080;2022-12-11T15:26:34;28.57;;;15.03;;
20283;SDS011;10301;50.832;4.080;2022-12-11T15:29:25;30.33;;;14.90;;
20283;SDS011;10301;50.832;4.080;2022-12-11T15:32:00;28.57;;;15.00;;
20283;SDS011;10301;50.832;4.080;2022-12-11T15:34:30;25.93;;;14.63;;
20283;SDS011;10301;50.832;4.080;2022-12-11T15:36:57;27.87;;;14.13;;
20283;SDS011;10301;50.832;4.080;2022-12-11T15:39:23;25.30;;;13.50;;
20283;SDS011;10301;50.832;4.080;2022-12-11T15:41:49;30.30;;;14.30;;
20283;SDS011;10301;50.832;4.080;2022-12-11T15:44:19;24.30;;;12.77;;
20283;SDS011;10301;50.832;4.080;2022-12-11T15:46:46;24.20;;;12.73;;
20283;SDS011;10301;50.832;4.080;2022-12-11T15:49:11;24.93;;;13.57;;
20283;SDS011;10301;50.832;4.080;2022-12-11T15:51:38;26.47;;;13.27;;
20283;SDS011;10301;50.832;4.080;2022-12-11T15:54:03;22.80;;;12.67;;
20283;SDS011;10301;50.832;4.080;2022-12-11T15:56:29;24.23;;;13.27;;
20283;SDS011;10301;50.832;4.080;2022-12-11T15:58:55;26.33;;;13.47;;
20283;SDS011;10301;50.832;4.080;2022-12-11T16:01:28;26.20;;;12.53;;
20283;SDS011;10301;50.832;4.080;2022-12-11T16:03:54;25.23;;;12.93;;
20283;SDS011;10301;50.832;4.080;2022-12-11T16:06:19;22.27;;;12.50;;